Time;durP1;ratioP1;P1;durP2;ratioP2;P2;SDS_P1;SDS_P2;PMS_P1;PMS_P2;Temp;Humidity;BMP_temperature;BMP_pressure;BME280_temperature;BME280_humidity;BME280_pressure;Samples;Min_cycle;Max_cycle;Signal;HPM_P1;HPM_P2
2023/08/28 04:00:39;;;;;;;2.50;1.60;;;16.90;84.90;;;;;;5985425;23;20428;-69
2023/08/28 04:03:06;;;;;;;2.40;1.10;;;16.80;85.00;;;;;;4915289;29;20543;-71
2023/08/28 04:05:37;;;;;;;1.80;1.00;;;16.70;85.10;;;;;;4916938;29;20539;-70
2023/08/28 04:08:04;;;;;;;2.07;1.10;;;16.70;85.60;;;;;;4916687;29;20838;-70
2023/08/28 04:10:31;;;;;;;1.80;1.00;;;16.70;85.40;;;;;;4916848;29;20485;-71
2023/08/28 04:12:58;;;;;;;4.90;1.23;;;16.70;85.30;;;;;;4916929;29;20452;-70
2023/08/28 04:15:24;;;;;;;2.00;1.20;;;16.80;85.20;;;;;;4917485;29;20441;-69
2023/08/28 04:17:52;;;;;;;2.20;1.10;;;16.80;85.20;;;;;;4916819;29;20444;-71
2023/08/28 04:20:19;;;;;;;2.30;1.20;;;16.90;85.20;;;;;;4916872;29;20480;-70
2023/08/28 04:22:46;;;;;;;1.90;0.90;;;16.80;85.40;;;;;;4916720;29;20480;-69
2023/08/28 04:25:14;;;;;;;1.90;0.97;;;16.90;85.40;;;;;;4916785;29;20879;-70
2023/08/28 04:27:42;;;;;;;3.10;1.10;;;16.90;85.20;;;;;;4916764;29;20527;-70
2023/08/28 04:30:10;;;;;;;1.83;0.90;;;16.90;85.20;;;;;;4917032;29;20448;-70
2023/08/28 04:32:37;;;;;;;1.90;0.90;;;16.90;85.00;;;;;;4916612;29;20473;-71
2023/08/28 04:35:06;;;;;;;2.80;1.53;;;16.90;84.90;;;;;;4916693;29;20500;-70
2023/08/28 04:37:33;;;;;;;2.03;1.13;;;16.90;84.80;;;;;;4918881;29;20456;-70
2023/08/28 04:40:00;;;;;;;1.90;1.20;;;16.90;84.90;;;;;;4920173;29;20455;-70
2023/08/28 04:42:27;;;;;;;1.90;1.00;;;16.90;85.00;;;;;;4920019;29;20861;-70
2023/08/28 04:44:53;;;;;;;3.00;1.30;;;16.90;84.80;;;;;;4919792;29;20806;-70
2023/08/28 04:47:21;;;;;;;2.63;1.30;;;16.90;85.00;;;;;;4920038;29;20831;-71
2023/08/28 04:49:47;;;;;;;2.37;1.20;;;16.80;85.00;;;;;;4919689;29;20827;-70
2023/08/28 04:52:15;;;;;;;2.07;1.10;;;16.80;85.10;;;;;;4919601;29;20894;-69
2023/08/28 04:54:42;;;;;;;2.10;1.20;;;16.80;85.10;;;;;;4919972;29;20875;-70
2023/08/28 04:57:09;;;;;;;1.90;1.10;;;16.90;85.10;;;;;;4919561;29;20946;-69
2023/08/28 04:59:35;;;;;;;2.53;1.60;;;16.80;85.20;;;;;;4919828;29;20451;-69
2023/08/28 05:02:02;;;;;;;3.60;1.10;;;16.90;85.00;;;;;;4919484;29;20496;-71
2023/08/28 05:04:29;;;;;;;1.90;1.10;;;16.90;85.10;;;;;;4919752;29;20481;-70
2023/08/28 05:06:55;;;;;;;2.53;1.00;;;16.90;85.00;;;;;;4919757;29;20449;-70
2023/08/28 05:09:23;;;;;;;2.50;1.30;;;16.90;85.00;;;;;;4919662;29;20451;-70
2023/08/28 05:11:50;;;;;;;4.00;1.20;;;16.90;85.10;;;;;;4919471;29;20469;-67
2023/08/28 05:14:17;;;;;;;2.80;1.47;;;16.80;85.50;;;;;;4919499;29;20452;-67
2023/08/28 05:16:43;;;;;;;2.40;1.37;;;16.80;85.40;;;;;;4919442;29;20448;-68
2023/08/28 05:19:10;;;;;;;4.73;1.50;;;16.80;85.30;;;;;;4919336;29;20457;-68
2023/08/28 05:21:36;;;;;;;2.13;1.20;;;16.80;85.20;;;;;;4919232;29;20488;-67
2023/08/28 05:24:03;;;;;;;2.70;1.57;;;16.80;85.20;;;;;;4919299;29;20449;-67
2023/08/28 05:26:31;;;;;;;2.00;1.27;;;16.80;85.40;;;;;;4918943;29;20963;-68
2023/08/28 05:28:58;;;;;;;2.67;1.80;;;16.80;85.50;;;;;;4919234;29;20445;-68
2023/08/28 05:31:25;;;;;;;2.10;1.40;;;16.80;85.50;;;;;;4919101;29;20468;-68
2023/08/28 05:33:51;;;;;;;2.70;1.23;;;16.80;85.50;;;;;;4919127;29;20555;-67
2023/08/28 05:36:18;;;;;;;3.10;1.23;;;16.80;85.70;;;;;;4919117;29;20449;-67
2023/08/28 05:38:44;;;;;;;2.07;1.23;;;16.80;85.70;;;;;;4919037;29;20448;-67
2023/08/28 05:41:11;;;;;;;2.47;1.43;;;16.80;85.60;;;;;;4918861;29;20520;-68
2023/08/28 05:43:39;;;;;;;2.90;1.47;;;16.80;85.70;;;;;;4919012;29;20445;-67
2023/08/28 05:46:06;;;;;;;2.20;1.30;;;16.90;85.50;;;;;;4918926;29;20452;-67
2023/08/28 05:48:32;;;;;;;2.57;1.40;;;16.90;85.60;;;;;;4918137;29;20456;-68
2023/08/28 05:50:59;;;;;;;2.10;1.40;;;16.90;85.40;;;;;;4918750;29;20469;-68
2023/08/28 05:53:26;;;;;;;2.20;1.40;;;16.90;85.50;;;;;;4918826;29;20452;-67
2023/08/28 05:55:52;;;;;;;2.17;1.30;;;16.90;85.60;;;;;;4918460;29;20449;-67
2023/08/28 05:58:19;;;;;;;1.97;1.33;;;16.90;85.50;;;;;;4918704;29;20448;-67
2023/08/28 06:00:47;;;;;;;2.43;1.50;;;16.90;85.40;;;;;;4918910;29;20469;-67
2023/08/28 06:03:14;;;;;;;1.73;0.93;;;16.90;85.20;;;;;;4918521;29;20472;-67
2023/08/28 06:05:40;;;;;;;3.30;1.13;;;17.00;85.40;;;;;;4918597;29;20476;-66
2023/08/28 06:08:07;;;;;;;3.00;1.60;;;17.00;85.40;;;;;;4918490;29;20449;-66
2023/08/28 06:10:38;;;;;;;2.10;1.33;;;17.00;85.40;;;;;;4918412;29;20452;-67
2023/08/28 06:13:05;;;;;;;4.30;1.47;;;17.00;85.10;;;;;;4918469;29;20465;-69
2023/08/28 06:15:31;;;;;;;4.13;1.93;;;17.00;85.40;;;;;;4918329;29;20503;-70
2023/08/28 06:17:59;;;;;;;2.77;1.33;;;17.10;85.30;;;;;;4918293;29;20444;-71
2023/08/28 06:20:26;;;;;;;3.10;1.63;;;17.10;85.40;;;;;;4918226;29;20448;-71
2023/08/28 06:22:53;;;;;;;2.90;1.53;;;17.00;85.20;;;;;;4918198;29;20480;-69
2023/08/28 06:25:19;;;;;;;2.73;1.60;;;17.00;85.70;;;;;;4918168;29;20457;-71
2023/08/28 06:27:46;;;;;;;2.60;1.87;;;17.00;85.70;;;;;;4918221;29;20500;-70
2023/08/28 06:30:13;;;;;;;2.80;2.20;;;17.00;85.90;;;;;;4918031;29;20483;-71
2023/08/28 06:32:40;;;;;;;2.87;2.23;;;17.00;85.70;;;;;;4917919;29;20472;-70
2023/08/28 06:35:09;;;;;;;3.03;2.00;;;17.00;86.00;;;;;;4918004;29;20449;-71
2023/08/28 06:37:36;;;;;;;3.40;3.10;;;17.00;86.10;;;;;;4917944;29;20449;-71
2023/08/28 06:40:03;;;;;;;2.27;1.83;;;17.00;86.30;;;;;;4917963;29;20472;-71
2023/08/28 06:42:30;;;;;;;3.77;1.87;;;17.00;86.20;;;;;;4917431;29;20901;-72
2023/08/28 06:44:57;;;;;;;3.87;2.53;;;17.00;86.20;;;;;;4917781;29;20457;-71
2023/08/28 06:47:24;;;;;;;2.53;2.07;;;17.10;86.00;;;;;;4917789;29;20478;-71
2023/08/28 06:49:50;;;;;;;3.10;2.00;;;17.10;86.10;;;;;;4917976;29;20452;-72
2023/08/28 06:52:19;;;;;;;2.87;2.00;;;17.10;86.10;;;;;;4917625;29;20469;-71
2023/08/28 06:54:46;;;;;;;3.50;2.53;;;17.10;86.10;;;;;;4918117;29;20805;-71
2023/08/28 06:57:12;;;;;;;4.50;2.70;;;16.90;86.70;;;;;;4917641;29;20489;-72
2023/08/28 06:59:39;;;;;;;3.20;2.67;;;16.80;87.20;;;;;;4917583;29;20504;-72
2023/08/28 07:02:06;;;;;;;2.90;2.43;;;16.70;87.60;;;;;;4917172;29;20563;-71
2023/08/28 07:04:32;;;;;;;2.40;1.83;;;16.90;87.50;;;;;;4917184;29;20500;-70
2023/08/28 07:06:59;;;;;;;2.30;1.90;;;16.90;86.90;;;;;;4917427;29;20444;-70
2023/08/28 07:09:27;;;;;;;2.73;2.20;;;16.90;87.10;;;;;;4917366;29;20448;-70
2023/08/28 07:11:54;;;;;;;4.97;2.93;;;16.90;87.10;;;;;;4917294;29;20516;-70
2023/08/28 07:14:20;;;;;;;2.90;2.50;;;16.90;86.60;;;;;;4917379;29;20489;-70
2023/08/28 07:16:47;;;;;;;3.53;2.50;;;16.90;87.00;;;;;;4917304;29;20504;-70
2023/08/28 07:19:14;;;;;;;2.53;2.20;;;16.90;87.10;;;;;;4917824;29;20444;-70
2023/08/28 07:21:40;;;;;;;3.23;2.23;;;16.90;87.00;;;;;;4917261;29;20464;-70
2023/08/28 07:24:07;;;;;;;2.87;2.10;;;16.90;86.90;;;;;;4917437;29;20481;-71
2023/08/28 07:26:35;;;;;;;2.67;1.90;;;16.90;86.80;;;;;;4917483;29;20830;-70
2023/08/28 07:29:02;;;;;;;2.47;2.17;;;17.00;86.60;;;;;;4917600;29;20449;-70
2023/08/28 07:31:29;;;;;;;2.90;2.20;;;17.00;86.70;;;;;;4917309;29;20469;-71
2023/08/28 07:33:55;;;;;;;3.40;2.77;;;17.10;86.40;;;;;;4917150;29;20455;-71
2023/08/28 07:36:23;;;;;;;2.33;1.90;;;17.00;86.30;;;;;;4916892;29;20998;-70
2023/08/28 07:38:50;;;;;;;2.90;2.13;;;17.10;85.70;;;;;;4917184;29;20448;-70
2023/08/28 07:41:19;;;;;;;4.03;1.90;;;17.10;85.40;;;;;;4917040;29;20532;-70
2023/08/28 07:43:47;;;;;;;2.73;1.90;;;17.00;85.30;;;;;;4917092;29;20584;-70
2023/08/28 07:46:14;;;;;;;2.40;1.80;;;16.90;85.40;;;;;;4917285;29;20485;-70
2023/08/28 07:48:41;;;;;;;2.83;1.87;;;17.00;86.00;;;;;;4917381;29;20602;-70
2023/08/28 07:51:07;;;;;;;2.47;1.90;;;17.00;86.00;;;;;;4916989;29;20594;-70
2023/08/28 07:53:34;;;;;;;2.37;1.90;;;17.10;85.70;;;;;;4917131;29;20448;-71
2023/08/28 07:56:02;;;;;;;2.77;1.80;;;17.20;85.00;;;;;;4917073;29;20531;-71
2023/08/28 07:58:29;;;;;;;2.40;2.00;;;17.20;85.00;;;;;;4917060;29;20491;-70
2023/08/28 08:00:58;;;;;;;2.17;1.60;;;17.30;85.00;;;;;;4916744;29;20495;-70
2023/08/28 08:03:24;;;;;;;2.33;2.00;;;17.30;85.00;;;;;;4916985;29;20473;-70
2023/08/28 08:05:52;;;;;;;3.60;2.20;;;17.30;84.90;;;;;;4916895;29;20539;-70
2023/08/28 08:08:19;;;;;;;2.17;1.80;;;17.20;84.40;;;;;;4917034;29;20487;-71
2023/08/28 08:10:46;;;;;;;2.70;2.00;;;17.20;85.20;;;;;;4917128;29;20504;-71
2023/08/28 08:13:12;;;;;;;3.20;2.10;;;17.30;85.20;;;;;;4920492;29;20453;-71
2023/08/28 08:15:39;;;;;;;3.10;2.73;;;17.40;84.80;;;;;;4920707;29;20584;-68
2023/08/28 08:18:07;;;;;;;2.30;1.80;;;17.20;85.00;;;;;;4920827;29;20452;-67
2023/08/28 08:20:34;;;;;;;3.20;1.90;;;17.30;85.10;;;;;;4920374;29;20560;-68
2023/08/28 08:23:00;;;;;;;3.57;1.83;;;17.30;84.70;;;;;;4920296;29;20499;-67
2023/08/28 08:25:27;;;;;;;2.13;1.70;;;17.20;84.70;;;;;;4921333;29;20460;-68
2023/08/28 08:27:54;;;;;;;2.87;1.60;;;17.10;84.80;;;;;;4920413;29;20462;-68
2023/08/28 08:30:21;;;;;;;2.60;1.57;;;17.10;84.10;;;;;;4920216;29;20471;-70
2023/08/28 08:32:47;;;;;;;2.43;1.97;;;17.20;84.30;;;;;;4920330;29;20447;-70
2023/08/28 08:35:15;;;;;;;2.90;1.90;;;17.30;84.30;;;;;;4920166;29;20452;-70
2023/08/28 08:37:42;;;;;;;2.93;1.73;;;17.30;84.50;;;;;;4920142;29;20449;-70
2023/08/28 08:40:13;;;;;;;2.57;2.00;;;17.30;84.80;;;;;;4920159;29;20455;-70
2023/08/28 08:42:40;;;;;;;4.13;2.30;;;17.40;84.90;;;;;;4920371;29;20579;-70
2023/08/28 08:45:09;;;;;;;2.87;2.00;;;17.40;84.90;;;;;;4920007;29;20456;-70
2023/08/28 08:47:36;;;;;;;2.40;1.70;;;17.40;84.80;;;;;;4920076;29;20449;-70
2023/08/28 08:50:06;;;;;;;2.20;1.60;;;17.30;84.20;;;;;;4920787;29;20520;-70
2023/08/28 08:52:38;;;;;;;2.70;1.80;;;17.10;85.20;;;;;;4919992;29;20468;-70
2023/08/28 08:55:12;;;;;;;2.90;1.80;;;17.10;84.70;;;;;;4919584;29;20926;-70
2023/08/28 08:57:43;;;;;;;2.47;1.50;;;17.10;84.10;;;;;;4920000;29;20432;-70
2023/08/28 09:00:13;;;;;;;5.20;1.90;;;16.90;84.30;;;;;;4920406;29;20433;-70
2023/08/28 09:02:42;;;;;;;2.40;1.43;;;16.90;84.20;;;;;;4919379;29;20496;-70
2023/08/28 09:05:10;;;;;;;2.10;1.23;;;16.90;83.00;;;;;;4919825;29;20481;-71
2023/08/28 09:07:38;;;;;;;2.30;1.40;;;16.90;82.20;;;;;;4919426;29;21014;-70
2023/08/28 09:10:05;;;;;;;2.50;1.30;;;16.90;82.80;;;;;;4919549;29;20456;-71
2023/08/28 09:12:32;;;;;;;2.50;1.30;;;17.10;82.30;;;;;;4919465;29;20468;-70
2023/08/28 09:14:59;;;;;;;2.30;1.43;;;17.10;81.70;;;;;;4919519;29;20451;-70
2023/08/28 09:17:26;;;;;;;2.30;1.40;;;17.10;82.60;;;;;;4919463;29;20452;-70
2023/08/28 09:19:53;;;;;;;1.90;1.17;;;17.30;82.60;;;;;;4919410;29;20951;-70
2023/08/28 09:22:22;;;;;;;1.97;1.33;;;17.40;81.90;;;;;;4918835;29;20524;-69
2023/08/28 09:24:53;;;;;;;2.53;1.50;;;17.50;80.70;;;;;;4918690;29;20527;-69
2023/08/28 09:27:20;;;;;;;2.70;1.43;;;17.60;81.20;;;;;;4919301;29;20496;-70
2023/08/28 09:29:47;;;;;;;2.53;1.67;;;17.60;81.40;;;;;;4919283;29;20449;-70
2023/08/28 09:32:14;;;;;;;5.40;2.20;;;17.60;81.40;;;;;;4918804;29;20897;-69
2023/08/28 09:34:41;;;;;;;3.70;2.10;;;17.60;80.70;;;;;;4919218;29;20910;-70
2023/08/28 09:37:10;;;;;;;3.03;1.40;;;17.70;80.20;;;;;;4919167;29;20452;-70
2023/08/28 09:39:38;;;;;;;2.70;1.37;;;17.80;79.40;;;;;;4919069;29;20540;-69
2023/08/28 09:42:08;;;;;;;3.20;1.10;;;17.90;79.90;;;;;;4918604;29;20824;-70
2023/08/28 09:44:37;;;;;;;1.80;1.03;;;18.00;79.10;;;;;;4918837;29;20563;-70
2023/08/28 09:47:05;;;;;;;2.10;1.20;;;18.00;78.30;;;;;;4918931;29;20508;-70
2023/08/28 09:49:31;;;;;;;2.00;1.33;;;18.10;78.90;;;;;;4918805;29;20508;-67
2023/08/28 09:51:59;;;;;;;2.40;1.20;;;17.90;78.70;;;;;;4918634;29;20473;-68
2023/08/28 09:54:26;;;;;;;2.00;1.17;;;17.90;79.50;;;;;;4918926;29;20540;-67
2023/08/28 09:56:53;;;;;;;2.10;1.20;;;17.90;79.40;;;;;;4918812;29;20821;-67
2023/08/28 09:59:21;;;;;;;2.67;1.00;;;18.00;78.30;;;;;;4918615;29;20480;-68
2023/08/28 10:01:48;;;;;;;2.20;1.30;;;18.20;78.50;;;;;;4918315;29;20495;-68
2023/08/28 10:04:17;;;;;;;2.00;1.20;;;18.10;79.00;;;;;;4918614;29;20560;-68
2023/08/28 10:06:49;;;;;;;2.30;1.27;;;18.30;78.60;;;;;;4918676;29;20512;-68
2023/08/28 10:09:19;;;;;;;2.13;1.20;;;18.40;77.40;;;;;;4918615;29;20444;-68
2023/08/28 10:11:47;;;;;;;3.10;1.37;;;18.50;77.50;;;;;;4918525;29;20473;-68
2023/08/28 10:14:15;;;;;;;5.70;1.40;;;18.70;76.20;;;;;;4918464;29;20817;-67
2023/08/28 10:16:47;;;;;;;4.20;1.30;;;18.70;76.20;;;;;;4942361;23;20496;-77
2023/08/28 10:19:18;;;;;;;3.60;1.10;;;18.80;75.40;;;;;;4918620;29;20429;-75
2023/08/28 10:21:46;;;;;;;2.20;1.10;;;18.80;76.20;;;;;;4918590;29;20425;-76
2023/08/28 10:24:14;;;;;;;2.17;1.07;;;18.80;76.20;;;;;;4918253;29;20565;-76
2023/08/28 10:26:43;;;;;;;2.17;1.17;;;18.90;75.50;;;;;;4917888;29;20887;-76
2023/08/28 10:29:11;;;;;;;1.90;1.20;;;18.80;76.30;;;;;;4918323;29;20522;-76
2023/08/28 10:31:38;;;;;;;2.87;1.20;;;18.90;75.40;;;;;;4918647;29;20520;-77
2023/08/28 10:34:10;;;;;;;2.20;1.10;;;19.00;75.00;;;;;;4917929;29;20887;-76
2023/08/28 10:36:37;;;;;;;2.80;1.17;;;19.00;75.40;;;;;;4918059;29;20529;-76
2023/08/28 10:39:05;;;;;;;2.43;1.00;;;19.00;74.30;;;;;;4918012;29;20448;-77
2023/08/28 10:41:32;;;;;;;1.70;0.93;;;19.10;75.20;;;;;;4917670;29;20951;-76
2023/08/28 10:44:01;;;;;;;2.07;1.17;;;19.10;75.50;;;;;;4918010;29;20536;-75
2023/08/28 10:46:29;;;;;;;2.13;1.23;;;19.10;75.10;;;;;;4917764;29;20590;-76
2023/08/28 10:48:59;;;;;;;2.03;1.10;;;19.20;75.10;;;;;;4917855;29;20444;-76
2023/08/28 10:51:32;;;;;;;3.50;1.30;;;19.10;74.50;;;;;;4917746;29;20575;-76
2023/08/28 10:54:02;;;;;;;2.83;1.10;;;19.30;75.00;;;;;;4917788;29;20426;-75
2023/08/28 10:56:33;;;;;;;1.90;1.20;;;19.30;73.80;;;;;;4917392;29;20492;-76
2023/08/28 10:59:22;;;;;;;2.10;1.13;;;19.30;74.60;;;;;;4917669;29;20449;-76
2023/08/28 11:01:52;;;;;;;2.10;1.23;;;19.20;75.20;;;;;;4917676;29;20528;-76
2023/08/28 11:04:19;;;;;;;2.30;1.10;;;19.20;75.20;;;;;;4917612;29;20563;-76
2023/08/28 11:06:48;;;;;;;2.43;1.20;;;19.10;74.30;;;;;;4917484;29;20464;-76
2023/08/28 11:09:40;;;;;;;1.97;0.97;;;18.90;74.40;;;;;;4917479;29;20491;-75
2023/08/28 11:12:26;;;;;;;1.97;1.00;;;18.70;75.00;;;;;;4917459;29;20437;-76
2023/08/28 11:15:02;;;;;;;4.53;1.10;;;18.60;74.90;;;;;;4917400;29;20441;-75
2023/08/28 11:17:32;;;;;;;2.13;1.20;;;18.40;75.60;;;;;;4916988;29;20549;-76
2023/08/28 11:20:10;;;;;;;1.80;1.00;;;18.50;75.10;;;;;;4917343;29;20487;-78
2023/08/28 11:22:40;;;;;;;1.93;1.10;;;18.30;75.40;;;;;;4917451;29;20433;-78
2023/08/28 11:25:09;;;;;;;2.00;1.20;;;18.30;75.70;;;;;;4917230;29;20496;-76
2023/08/28 11:27:43;;;;;;;1.80;0.80;;;18.30;76.60;;;;;;4917606;29;20507;-76
2023/08/28 11:30:11;;;;;;;1.73;0.90;;;18.20;75.90;;;;;;4917449;29;20792;-76
2023/08/28 11:32:40;;;;;;;2.43;1.00;;;18.30;76.00;;;;;;4917688;29;20453;-76
2023/08/28 11:35:09;;;;;;;1.93;0.87;;;18.50;75.20;;;;;;4917822;29;20480;-76
2023/08/28 11:37:37;;;;;;;4.23;1.30;;;18.60;74.80;;;;;;4916933;29;20468;-75
2023/08/28 11:40:07;;;;;;;1.70;0.97;;;18.70;74.60;;;;;;4917187;29;20480;-75
2023/08/28 11:42:34;;;;;;;1.80;0.90;;;18.70;74.30;;;;;;4916880;29;20461;-76
2023/08/28 11:45:01;;;;;;;1.77;0.90;;;18.70;75.20;;;;;;4916824;29;21013;-75
2023/08/28 11:47:30;;;;;;;2.40;1.00;;;18.70;74.60;;;;;;4916389;29;20468;-75
2023/08/28 11:49:58;;;;;;;1.80;0.93;;;18.60;74.80;;;;;;4917040;29;20452;-75
2023/08/28 11:52:26;;;;;;;2.53;1.10;;;18.70;74.50;;;;;;4917549;29;20457;-76
2023/08/28 11:54:58;;;;;;;2.10;0.90;;;18.70;74.40;;;;;;4917065;29;20440;-76
2023/08/28 11:57:27;;;;;;;2.20;1.00;;;18.80;74.40;;;;;;4916963;29;20469;-75
2023/08/28 11:59:55;;;;;;;1.70;0.90;;;18.60;75.20;;;;;;4916995;29;20448;-76
2023/08/28 12:02:22;;;;;;;2.00;1.20;;;18.60;74.80;;;;;;4916942;29;20951;-75
2023/08/28 12:04:49;;;;;;;1.90;1.10;;;18.70;75.70;;;;;;4916807;29;20477;-76
2023/08/28 12:07:17;;;;;;;1.70;0.90;;;18.70;74.80;;;;;;4916820;29;20892;-75
2023/08/28 12:09:45;;;;;;;2.00;1.13;;;18.60;74.80;;;;;;4916954;29;20480;-76
2023/08/28 12:12:12;;;;;;;1.60;0.83;;;18.60;75.60;;;;;;4916597;29;20962;-76
2023/08/28 12:14:43;;;;;;;1.83;1.10;;;18.50;75.80;;;;;;4916826;29;20445;-75
2023/08/28 12:17:13;;;;;;;1.93;1.10;;;18.50;74.90;;;;;;4916513;29;20508;-76
2023/08/28 12:19:40;;;;;;;2.37;0.87;;;18.60;75.40;;;;;;4916839;29;20517;-75
2023/08/28 12:22:08;;;;;;;2.10;0.90;;;18.60;75.00;;;;;;4916759;29;20457;-76
2023/08/28 12:24:39;;;;;;;2.17;1.03;;;18.70;74.90;;;;;;4916619;29;20484;-76
2023/08/28 12:27:06;;;;;;;2.03;0.80;;;18.70;75.00;;;;;;4916708;29;20468;-77
2023/08/28 12:29:34;;;;;;;1.70;0.83;;;18.60;74.10;;;;;;4916386;29;20911;-76
2023/08/28 12:32:05;;;;;;;3.73;1.00;;;18.60;74.40;;;;;;4916631;29;20452;-75
2023/08/28 12:34:33;;;;;;;1.90;0.97;;;18.60;74.30;;;;;;4916692;29;20441;-75
2023/08/28 12:37:11;;;;;;;2.47;0.90;;;18.80;74.00;;;;;;4916731;29;20556;-76
2023/08/28 12:39:45;;;;;;;2.07;0.80;;;18.90;73.20;;;;;;4917322;29;20512;-76
2023/08/28 12:42:12;;;;;;;2.03;0.87;;;18.90;73.20;;;;;;4916637;29;20432;-76
2023/08/28 12:44:39;;;;;;;1.80;1.00;;;18.80;73.50;;;;;;4916538;29;20520;-76
2023/08/28 12:47:08;;;;;;;2.93;0.90;;;18.70;73.10;;;;;;4916524;29;20469;-76
2023/08/28 12:49:35;;;;;;;1.97;0.90;;;18.80;72.90;;;;;;4916469;29;20508;-76
2023/08/28 12:52:02;;;;;;;2.73;1.00;;;18.80;73.20;;;;;;4916430;29;20449;-75
2023/08/28 12:54:28;;;;;;;2.00;1.03;;;18.80;73.20;;;;;;4916113;29;20449;-76
2023/08/28 12:56:55;;;;;;;2.13;0.80;;;18.80;72.80;;;;;;4916451;29;20465;-76
2023/08/28 12:59:22;;;;;;;2.17;1.10;;;18.80;73.90;;;;;;4919824;29;20445;-75
2023/08/28 13:01:49;;;;;;;2.47;1.10;;;18.80;74.80;;;;;;4919782;29;20484;-76
2023/08/28 13:04:17;;;;;;;1.87;1.10;;;18.70;73.50;;;;;;4919629;29;20484;-75
2023/08/28 13:06:44;;;;;;;2.20;1.07;;;18.50;74.00;;;;;;4919666;29;20484;-75
2023/08/28 13:09:11;;;;;;;1.90;0.93;;;18.50;74.80;;;;;;4919906;29;20449;-76
2023/08/28 13:11:37;;;;;;;2.10;1.03;;;18.50;74.20;;;;;;4919639;29;20448;-75
2023/08/28 13:14:04;;;;;;;1.70;0.80;;;18.40;75.00;;;;;;4919920;29;20441;-76
2023/08/28 13:16:31;;;;;;;1.80;0.87;;;18.40;74.90;;;;;;4919442;29;20481;-75
2023/08/28 13:18:59;;;;;;;2.83;1.10;;;18.30;75.00;;;;;;4919529;29;20453;-75
2023/08/28 13:21:27;;;;;;;2.10;0.80;;;18.40;75.10;;;;;;4919545;29;20448;-75
2023/08/28 13:23:55;;;;;;;2.37;1.07;;;18.40;75.00;;;;;;4919452;29;20499;-74
2023/08/28 13:26:22;;;;;;;2.27;1.10;;;18.40;75.00;;;;;;4919884;29;20465;-74
2023/08/28 13:28:49;;;;;;;2.23;0.93;;;18.30;75.10;;;;;;4919000;29;20504;-75
2023/08/28 13:31:17;;;;;;;2.63;1.10;;;18.20;75.40;;;;;;4919187;29;20444;-75
2023/08/28 13:33:43;;;;;;;2.00;0.90;;;18.20;74.90;;;;;;4919365;29;20899;-76
2023/08/28 13:36:10;;;;;;;1.83;1.13;;;18.20;75.80;;;;;;4919317;29;20464;-75
2023/08/28 13:38:38;;;;;;;1.83;1.10;;;18.20;76.10;;;;;;4919269;29;20449;-75
2023/08/28 13:41:06;;;;;;;2.00;0.90;;;18.10;76.50;;;;;;4919158;29;20543;-76
2023/08/28 13:43:33;;;;;;;2.33;1.00;;;18.10;78.00;;;;;;4919022;29;20453;-75
2023/08/28 13:45:59;;;;;;;1.50;0.80;;;18.20;77.00;;;;;;4918979;29;20472;-75
2023/08/28 13:48:27;;;;;;;1.70;1.00;;;18.30;76.70;;;;;;4919044;29;20445;-75
2023/08/28 13:50:54;;;;;;;1.70;0.80;;;18.30;76.80;;;;;;4918950;29;20456;-75
2023/08/28 13:53:21;;;;;;;2.13;0.83;;;18.40;76.40;;;;;;4918839;29;20452;-76
2023/08/28 13:55:49;;;;;;;1.60;0.83;;;18.50;76.90;;;;;;4918756;29;20460;-77
2023/08/28 13:58:19;;;;;;;1.70;0.90;;;18.50;76.30;;;;;;4918899;29;20524;-75
2023/08/28 14:00:46;;;;;;;1.70;0.90;;;18.60;76.80;;;;;;4918850;29;20452;-76
2023/08/28 14:03:13;;;;;;;1.90;0.70;;;18.50;73.90;;;;;;4918662;29;20445;-75
2023/08/28 14:05:39;;;;;;;1.90;1.00;;;18.50;74.30;;;;;;4918556;29;20488;-76
2023/08/28 14:08:06;;;;;;;1.70;1.00;;;18.50;74.20;;;;;;4919149;29;20453;-76
2023/08/28 14:10:34;;;;;;;2.00;0.90;;;18.40;75.10;;;;;;4918768;29;20464;-76
2023/08/28 14:13:02;;;;;;;2.07;1.00;;;18.30;75.80;;;;;;4919988;29;20977;-75
2023/08/28 14:15:29;;;;;;;2.27;0.90;;;18.30;75.70;;;;;;4918674;29;20440;-76
2023/08/28 14:17:56;;;;;;;2.27;0.70;;;18.10;74.30;;;;;;4918499;29;20429;-76
2023/08/28 14:20:22;;;;;;;1.80;0.87;;;17.90;73.70;;;;;;4918407;29;20457;-76
2023/08/28 14:22:49;;;;;;;1.60;0.77;;;17.90;74.20;;;;;;4918360;29;20512;-76
2023/08/28 14:25:16;;;;;;;1.60;0.70;;;17.90;74.60;;;;;;4918167;29;20519;-75
2023/08/28 14:27:43;;;;;;;1.70;0.90;;;17.90;75.60;;;;;;4918146;29;20476;-76
2023/08/28 14:30:12;;;;;;;1.80;0.90;;;17.90;75.10;;;;;;4917904;29;20449;-75
2023/08/28 14:32:39;;;;;;;1.60;0.80;;;17.90;74.20;;;;;;4918129;29;20491;-76
2023/08/28 14:35:06;;;;;;;1.70;0.70;;;18.00;74.60;;;;;;4918092;29;20458;-76
2023/08/28 14:37:33;;;;;;;1.90;0.80;;;18.00;74.60;;;;;;4917964;29;20588;-75
2023/08/28 14:40:00;;;;;;;1.50;0.70;;;18.00;74.20;;;;;;4918086;29;20464;-76
2023/08/28 14:42:26;;;;;;;1.60;0.77;;;18.10;73.80;;;;;;4917959;29;20455;-75
2023/08/28 14:44:53;;;;;;;1.60;0.80;;;17.90;74.00;;;;;;4917861;29;20487;-75
2023/08/28 14:47:21;;;;;;;2.07;0.80;;;17.90;74.00;;;;;;4917839;29;20472;-75
2023/08/28 14:49:48;;;;;;;3.03;0.90;;;18.00;73.50;;;;;;4917844;29;20457;-75
2023/08/28 14:52:14;;;;;;;1.90;1.00;;;17.90;73.50;;;;;;4917869;29;20865;-75
2023/08/28 14:54:41;;;;;;;1.77;0.87;;;18.00;73.80;;;;;;4917415;29;20859;-74
2023/08/28 14:57:08;;;;;;;1.70;0.80;;;18.10;74.70;;;;;;4917591;29;20479;-76
2023/08/28 14:59:35;;;;;;;1.67;0.93;;;18.20;74.60;;;;;;4917594;29;20633;-75
2023/08/28 15:02:02;;;;;;;1.60;0.80;;;18.20;73.60;;;;;;4917592;29;20449;-75
2023/08/28 15:04:30;;;;;;;1.60;0.77;;;18.20;73.30;;;;;;4917485;29;20484;-75
2023/08/28 15:06:57;;;;;;;2.50;0.83;;;18.10;73.90;;;;;;4917471;29;20473;-75
2023/08/28 15:09:24;;;;;;;2.60;0.80;;;18.20;73.90;;;;;;4917466;29;20453;-75
2023/08/28 15:11:58;;;;;;;1.70;0.80;;;18.00;75.20;;;;;;4917784;29;20449;-74
2023/08/28 15:14:25;;;;;;;1.57;0.77;;;18.00;74.00;;;;;;4917461;29;20933;-75
2023/08/28 15:16:52;;;;;;;1.57;0.73;;;18.00;73.30;;;;;;4916974;29;20539;-75
2023/08/28 15:19:19;;;;;;;1.50;0.80;;;18.10;72.60;;;;;;4917380;29;20449;-75
2023/08/28 15:21:47;;;;;;;1.70;0.90;;;18.10;72.30;;;;;;4916478;29;20449;-76
2023/08/28 15:24:14;;;;;;;1.67;0.77;;;18.00;71.40;;;;;;4919585;29;20962;-76
2023/08/28 15:26:40;;;;;;;2.03;0.90;;;18.00;71.10;;;;;;4918715;29;20966;-74
2023/08/28 15:29:07;;;;;;;1.83;0.80;;;18.00;71.40;;;;;;4918815;29;20453;-75
2023/08/28 15:31:34;;;;;;;1.80;1.00;;;17.90;71.80;;;;;;4917133;29;20973;-75
2023/08/28 15:34:00;;;;;;;1.63;0.80;;;17.90;72.00;;;;;;4918100;29;20453;-76
2023/08/28 15:36:27;;;;;;;1.90;1.00;;;17.80;72.80;;;;;;4916924;29;20472;-76
2023/08/28 15:38:55;;;;;;;2.80;0.80;;;17.90;73.20;;;;;;4917289;29;20449;-75
2023/08/28 15:41:22;;;;;;;2.10;0.73;;;17.90;72.70;;;;;;4917159;29;20455;-76
2023/08/28 15:43:49;;;;;;;1.63;0.70;;;17.90;72.70;;;;;;4917059;29;20453;-75
2023/08/28 15:46:15;;;;;;;1.70;0.80;;;18.00;72.40;;;;;;4916583;29;20879;-75
2023/08/28 15:48:42;;;;;;;1.97;0.80;;;17.80;72.60;;;;;;4917051;29;20452;-75
2023/08/28 15:51:09;;;;;;;2.37;0.80;;;17.80;72.80;;;;;;4917143;29;20449;-74
2023/08/28 15:53:35;;;;;;;1.90;0.80;;;17.80;73.80;;;;;;4917051;29;20456;-74
2023/08/28 15:56:04;;;;;;;1.60;0.70;;;17.80;73.90;;;;;;4916908;29;20475;-75
2023/08/28 15:58:31;;;;;;;1.60;0.77;;;17.80;73.20;;;;;;4916961;29;20476;-76
2023/08/28 16:00:59;;;;;;;1.70;0.83;;;17.80;73.00;;;;;;4916945;29;20448;-75
2023/08/28 16:03:26;;;;;;;2.23;1.00;;;17.80;73.30;;;;;;4916897;29;20540;-75
2023/08/28 16:05:52;;;;;;;1.70;0.80;;;17.90;74.00;;;;;;4916771;29;20499;-74
2023/08/28 16:08:19;;;;;;;2.00;0.80;;;17.90;73.20;;;;;;4916918;29;20504;-75
2023/08/28 16:10:46;;;;;;;1.60;0.80;;;17.90;73.40;;;;;;4916905;29;20457;-75
2023/08/28 16:13:14;;;;;;;1.70;0.73;;;18.00;72.20;;;;;;4916859;29;20499;-75
2023/08/28 16:18:10;;;;;;;1.80;0.77;;;17.80;72.80;;;;;;4986943;23;20497;-72
2023/08/28 16:20:41;;;;;;;1.60;0.80;;;17.80;73.60;;;;;;4918143;29;20865;-69
2023/08/28 16:23:08;;;;;;;2.27;0.90;;;17.70;73.20;;;;;;4916696;29;20459;-69
2023/08/28 16:25:37;;;;;;;1.80;0.90;;;17.70;73.10;;;;;;4916642;29;20522;-69
2023/08/28 16:28:04;;;;;;;1.80;0.80;;;17.70;73.50;;;;;;4916595;29;20495;-69
2023/08/28 16:30:32;;;;;;;1.60;0.70;;;17.60;73.50;;;;;;4916663;29;20575;-69
2023/08/28 16:32:59;;;;;;;1.63;0.80;;;17.70;72.80;;;;;;4918305;29;20506;-69
2023/08/28 16:35:25;;;;;;;1.80;0.73;;;17.70;72.70;;;;;;4920199;29;20444;-69
2023/08/28 16:37:52;;;;;;;1.70;0.80;;;17.70;73.10;;;;;;4920108;29;20500;-69
2023/08/28 16:40:19;;;;;;;1.73;0.80;;;17.70;72.60;;;;;;4920149;29;20452;-69
2023/08/28 16:42:45;;;;;;;2.83;0.90;;;17.60;72.80;;;;;;4920065;29;20457;-69
2023/08/28 16:45:12;;;;;;;1.70;0.90;;;17.50;73.20;;;;;;4920035;29;20488;-70
2023/08/28 16:47:40;;;;;;;1.83;0.90;;;17.50;73.20;;;;;;4919892;29;20472;-70
2023/08/28 16:50:07;;;;;;;1.90;0.90;;;17.60;73.50;;;;;;4919580;29;20456;-70
2023/08/28 16:52:34;;;;;;;1.80;0.87;;;17.60;72.60;;;;;;4919885;29;20500;-70